sensor_id;sensor_type;location;lat;lon;timestamp;P1;durP1;ratioP1;P2;durP2;ratioP2
45274;SDS011;31019;43.780;25.948;2024-02-04T00:01:07;84.13;;;77.82;;
45274;SDS011;31019;43.780;25.948;2024-02-04T00:03:34;90.97;;;84.57;;
45274;SDS011;31019;43.780;25.948;2024-02-04T00:06:01;93.47;;;87.07;;
45274;SDS011;31019;43.780;25.948;2024-02-04T00:08:28;83.53;;;77.65;;
45274;SDS011;31019;43.780;25.948;2024-02-04T00:10:55;85.00;;;79.05;;
45274;SDS011;31019;43.780;25.948;2024-02-04T00:13:23;78.55;;;72.85;;
45274;SDS011;31019;43.780;25.948;2024-02-04T00:15:50;82.97;;;77.07;;
45274;SDS011;31019;43.780;25.948;2024-02-04T00:18:19;95.68;;;89.07;;
45274;SDS011;31019;43.780;25.948;2024-02-04T00:20:46;89.72;;;83.22;;
45274;SDS011;31019;43.780;25.948;2024-02-04T00:23:13;84.97;;;78.47;;
45274;SDS011;31019;43.780;25.948;2024-02-04T00:25:40;90.45;;;83.85;;
45274;SDS011;31019;43.780;25.948;2024-02-04T00:28:07;103.82;;;96.53;;
45274;SDS011;31019;43.780;25.948;2024-02-04T00:30:38;103.40;;;96.22;;
45274;SDS011;31019;43.780;25.948;2024-02-04T00:33:05;110.65;;;102.85;;
45274;SDS011;31019;43.780;25.948;2024-02-04T00:35:32;122.00;;;113.70;;
45274;SDS011;31019;43.780;25.948;2024-02-04T00:37:58;140.80;;;131.77;;
45274;SDS011;31019;43.780;25.948;2024-02-04T00:40:28;111.57;;;103.97;;
45274;SDS011;31019;43.780;25.948;2024-02-04T00:42:55;119.53;;;111.22;;
45274;SDS011;31019;43.780;25.948;2024-02-04T00:45:22;119.38;;;111.38;;
45274;SDS011;31019;43.780;25.948;2024-02-04T00:47:50;130.25;;;121.60;;
45274;SDS011;31019;43.780;25.948;2024-02-04T00:50:17;126.35;;;117.85;;
45274;SDS011;31019;43.780;25.948;2024-02-04T00:52:44;121.45;;;113.05;;
45274;SDS011;31019;43.780;25.948;2024-02-04T00:55:11;128.43;;;119.72;;
45274;SDS011;31019;43.780;25.948;2024-02-04T00:57:38;133.07;;;124.18;;
45274;SDS011;31019;43.780;25.948;2024-02-04T01:00:07;127.63;;;119.18;;
45274;SDS011;31019;43.780;25.948;2024-02-04T01:02:34;118.00;;;110.20;;
45274;SDS011;31019;43.780;25.948;2024-02-04T01:05:03;111.90;;;104.50;;
45274;SDS011;31019;43.780;25.948;2024-02-04T01:07:30;115.78;;;108.28;;
45274;SDS011;31019;43.780;25.948;2024-02-04T01:09:57;108.50;;;101.20;;
45274;SDS011;31019;43.780;25.948;2024-02-04T01:12:24;113.30;;;104.80;;
45274;SDS011;31019;43.780;25.948;2024-02-04T01:14:51;126.88;;;118.78;;
45274;SDS011;31019;43.780;25.948;2024-02-04T01:17:18;124.45;;;116.13;;
45274;SDS011;31019;43.780;25.948;2024-02-04T01:19:45;117.05;;;109.47;;
45274;SDS011;31019;43.780;25.948;2024-02-04T01:22:13;121.80;;;113.80;;
45274;SDS011;31019;43.780;25.948;2024-02-04T01:24:40;111.15;;;103.53;;
45274;SDS011;31019;43.780;25.948;2024-02-04T01:27:07;111.28;;;103.68;;
45274;SDS011;31019;43.780;25.948;2024-02-04T01:29:34;104.38;;;97.00;;
45274;SDS011;31019;43.780;25.948;2024-02-04T01:32:00;108.97;;;101.28;;
45274;SDS011;31019;43.780;25.948;2024-02-04T01:34:30;122.43;;;113.82;;
45274;SDS011;31019;43.780;25.948;2024-02-04T01:36:57;113.85;;;106.03;;
45274;SDS011;31019;43.780;25.948;2024-02-04T01:39:28;110.80;;;103.18;;
45274;SDS011;31019;43.780;25.948;2024-02-04T01:41:55;118.18;;;109.88;;
45274;SDS011;31019;43.780;25.948;2024-02-04T01:44:22;123.72;;;114.85;;
45274;SDS011;31019;43.780;25.948;2024-02-04T01:46:49;120.57;;;112.03;;
45274;SDS011;31019;43.780;25.948;2024-02-04T01:49:16;118.93;;;110.32;;
45274;SDS011;31019;43.780;25.948;2024-02-04T01:51:43;120.05;;;111.97;;
45274;SDS011;31019;43.780;25.948;2024-02-04T01:54:10;117.20;;;108.38;;
45274;SDS011;31019;43.780;25.948;2024-02-04T01:56:38;109.72;;;102.20;;
45274;SDS011;31019;43.780;25.948;2024-02-04T01:59:05;112.68;;;104.85;;
45274;SDS011;31019;43.780;25.948;2024-02-04T02:01:32;112.45;;;104.63;;
45274;SDS011;31019;43.780;25.948;2024-02-04T02:04:01;171.85;;;158.00;;
45274;SDS011;31019;43.780;25.948;2024-02-04T02:06:28;126.93;;;117.53;;
45274;SDS011;31019;43.780;25.948;2024-02-04T02:08:56;140.52;;;128.50;;
45274;SDS011;31019;43.780;25.948;2024-02-04T02:11:31;116.75;;;107.78;;
45274;SDS011;31019;43.780;25.948;2024-02-04T02:14:05;117.47;;;107.45;;
45274;SDS011;31019;43.780;25.948;2024-02-04T02:16:37;115.97;;;106.47;;
45274;SDS011;31019;43.780;25.948;2024-02-04T02:19:08;145.52;;;131.98;;
45274;SDS011;31019;43.780;25.948;2024-02-04T02:21:47;120.78;;;109.55;;
45274;SDS011;31019;43.780;25.948;2024-02-04T02:24:29;122.07;;;112.38;;
45274;SDS011;31019;43.780;25.948;2024-02-04T02:26:59;110.95;;;102.55;;
45274;SDS011;31019;43.780;25.948;2024-02-04T02:29:26;103.63;;;95.22;;
45274;SDS011;31019;43.780;25.948;2024-02-04T02:31:53;113.75;;;105.97;;
45274;SDS011;31019;43.780;25.948;2024-02-04T02:34:20;120.43;;;111.93;;
45274;SDS011;31019;43.780;25.948;2024-02-04T02:36:49;111.55;;;103.95;;
45274;SDS011;31019;43.780;25.948;2024-02-04T02:39:22;111.45;;;103.78;;
45274;SDS011;31019;43.780;25.948;2024-02-04T02:41:53;121.53;;;113.20;;
45274;SDS011;31019;43.780;25.948;2024-02-04T02:44:23;137.63;;;128.52;;
45274;SDS011;31019;43.780;25.948;2024-02-04T02:46:52;127.90;;;118.90;;
45274;SDS011;31019;43.780;25.948;2024-02-04T02:49:21;126.18;;;117.32;;
45274;SDS011;31019;43.780;25.948;2024-02-04T02:51:48;130.60;;;121.50;;
45274;SDS011;31019;43.780;25.948;2024-02-04T02:54:15;106.15;;;98.75;;
45274;SDS011;31019;43.780;25.948;2024-02-04T02:56:42;110.53;;;102.28;;
45274;SDS011;31019;43.780;25.948;2024-02-04T02:59:10;114.28;;;106.38;;
45274;SDS011;31019;43.780;25.948;2024-02-04T03:01:38;116.80;;;108.47;;
45274;SDS011;31019;43.780;25.948;2024-02-04T03:04:05;121.35;;;113.05;;
45274;SDS011;31019;43.780;25.948;2024-02-04T03:06:33;120.68;;;112.47;;
45274;SDS011;31019;43.780;25.948;2024-02-04T03:08:59;113.43;;;105.65;;
45274;SDS011;31019;43.780;25.948;2024-02-04T03:11:26;105.70;;;98.32;;
45274;SDS011;31019;43.780;25.948;2024-02-04T03:13:56;106.63;;;99.43;;
45274;SDS011;31019;43.780;25.948;2024-02-04T03:16:24;101.15;;;93.90;;
45274;SDS011;31019;43.780;25.948;2024-02-04T03:18:51;106.47;;;98.97;;
45274;SDS011;31019;43.780;25.948;2024-02-04T03:21:19;107.57;;;99.97;;
45274;SDS011;31019;43.780;25.948;2024-02-04T03:23:47;108.30;;;100.93;;
45274;SDS011;31019;43.780;25.948;2024-02-04T03:26:16;103.55;;;96.43;;
45274;SDS011;31019;43.780;25.948;2024-02-04T03:28:44;95.97;;;89.38;;
45274;SDS011;31019;43.780;25.948;2024-02-04T03:31:11;98.07;;;91.43;;
45274;SDS011;31019;43.780;25.948;2024-02-04T03:33:39;82.18;;;76.55;;
45274;SDS011;31019;43.780;25.948;2024-02-04T03:36:06;80.80;;;74.90;;
45274;SDS011;31019;43.780;25.948;2024-02-04T03:38:33;87.80;;;82.00;;
45274;SDS011;31019;43.780;25.948;2024-02-04T03:41:00;94.57;;;88.38;;
45274;SDS011;31019;43.780;25.948;2024-02-04T03:43:27;97.57;;;91.13;;
45274;SDS011;31019;43.780;25.948;2024-02-04T03:45:56;106.93;;;99.72;;
45274;SDS011;31019;43.780;25.948;2024-02-04T03:48:23;113.53;;;105.97;;
45274;SDS011;31019;43.780;25.948;2024-02-04T03:50:52;112.35;;;104.65;;
45274;SDS011;31019;43.780;25.948;2024-02-04T03:53:18;113.45;;;105.55;;
45274;SDS011;31019;43.780;25.948;2024-02-04T03:55:48;103.32;;;95.90;;
45274;SDS011;31019;43.780;25.948;2024-02-04T03:58:15;110.55;;;102.90;;
45274;SDS011;31019;43.780;25.948;2024-02-04T04:00:41;118.07;;;110.18;;
45274;SDS011;31019;43.780;25.948;2024-02-04T04:03:08;107.50;;;100.10;;
45274;SDS011;31019;43.780;25.948;2024-02-04T04:05:35;114.40;;;106.80;;
45274;SDS011;31019;43.780;25.948;2024-02-04T04:08:04;107.53;;;99.93;;
45274;SDS011;31019;43.780;25.948;2024-02-04T04:10:31;105.13;;;97.57;;
45274;SDS011;31019;43.780;25.948;2024-02-04T04:12:58;92.28;;;85.78;;
45274;SDS011;31019;43.780;25.948;2024-02-04T04:15:25;105.57;;;98.28;;
45274;SDS011;31019;43.780;25.948;2024-02-04T04:17:52;96.28;;;89.70;;
45274;SDS011;31019;43.780;25.948;2024-02-04T04:20:19;88.85;;;82.45;;
45274;SDS011;31019;43.780;25.948;2024-02-04T04:22:46;94.10;;;87.60;;
45274;SDS011;31019;43.780;25.948;2024-02-04T04:25:14;103.13;;;96.22;;
45274;SDS011;31019;43.780;25.948;2024-02-04T04:27:42;99.65;;;92.75;;
45274;SDS011;31019;43.780;25.948;2024-02-04T04:30:09;101.97;;;94.88;;
45274;SDS011;31019;43.780;25.948;2024-02-04T04:32:36;84.90;;;79.03;;
45274;SDS011;31019;43.780;25.948;2024-02-04T04:35:03;104.75;;;97.75;;
45274;SDS011;31019;43.780;25.948;2024-02-04T04:37:30;101.13;;;94.32;;
45274;SDS011;31019;43.780;25.948;2024-02-04T04:39:57;96.32;;;89.82;;
45274;SDS011;31019;43.780;25.948;2024-02-04T04:42:26;78.78;;;73.47;;
45274;SDS011;31019;43.780;25.948;2024-02-04T04:44:52;87.82;;;82.25;;
45274;SDS011;31019;43.780;25.948;2024-02-04T04:47:19;65.88;;;61.17;;
45274;SDS011;31019;43.780;25.948;2024-02-04T04:49:46;76.95;;;71.30;;
45274;SDS011;31019;43.780;25.948;2024-02-04T04:52:13;72.05;;;67.15;;
45274;SDS011;31019;43.780;25.948;2024-02-04T04:54:40;76.45;;;71.10;;
45274;SDS011;31019;43.780;25.948;2024-02-04T04:57:07;52.50;;;48.95;;
45274;SDS011;31019;43.780;25.948;2024-02-04T04:59:35;53.20;;;49.50;;
45274;SDS011;31019;43.780;25.948;2024-02-04T05:02:03;64.05;;;59.75;;
45274;SDS011;31019;43.780;25.948;2024-02-04T05:04:33;56.35;;;52.25;;
45274;SDS011;31019;43.780;25.948;2024-02-04T05:07:02;52.33;;;48.53;;
45274;SDS011;31019;43.780;25.948;2024-02-04T05:09:30;49.53;;;46.15;;
45274;SDS011;31019;43.780;25.948;2024-02-04T05:11:56;47.47;;;44.20;;
45274;SDS011;31019;43.780;25.948;2024-02-04T05:14:23;47.55;;;44.25;;
45274;SDS011;31019;43.780;25.948;2024-02-04T05:16:51;41.15;;;38.35;;
45274;SDS011;31019;43.780;25.948;2024-02-04T05:19:18;45.70;;;42.47;;
45274;SDS011;31019;43.780;25.948;2024-02-04T05:21:45;43.30;;;40.50;;
45274;SDS011;31019;43.780;25.948;2024-02-04T05:24:12;50.45;;;46.65;;
45274;SDS011;31019;43.780;25.948;2024-02-04T05:26:39;41.72;;;39.13;;
45274;SDS011;31019;43.780;25.948;2024-02-04T05:29:06;44.72;;;41.92;;
45274;SDS011;31019;43.780;25.948;2024-02-04T05:31:33;58.85;;;55.00;;
45274;SDS011;31019;43.780;25.948;2024-02-04T05:34:04;55.95;;;51.65;;
45274;SDS011;31019;43.780;25.948;2024-02-04T05:36:32;45.85;;;42.83;;
45274;SDS011;31019;43.780;25.948;2024-02-04T05:39:08;39.47;;;36.75;;
45274;SDS011;31019;43.780;25.948;2024-02-04T05:41:35;59.85;;;55.95;;
45274;SDS011;31019;43.780;25.948;2024-02-04T05:44:02;46.00;;;42.90;;
45274;SDS011;31019;43.780;25.948;2024-02-04T05:46:29;41.42;;;38.67;;
45274;SDS011;31019;43.780;25.948;2024-02-04T05:48:56;53.53;;;50.03;;
45274;SDS011;31019;43.780;25.948;2024-02-04T05:51:25;45.90;;;42.80;;
45274;SDS011;31019;43.780;25.948;2024-02-04T05:53:51;57.83;;;54.05;;
45274;SDS011;31019;43.780;25.948;2024-02-04T05:56:18;63.47;;;59.15;;
45274;SDS011;31019;43.780;25.948;2024-02-04T05:58:45;64.35;;;59.55;;
45274;SDS011;31019;43.780;25.948;2024-02-04T06:01:12;59.03;;;55.05;;
45274;SDS011;31019;43.780;25.948;2024-02-04T06:03:41;57.47;;;53.28;;
45274;SDS011;31019;43.780;25.948;2024-02-04T06:06:08;52.78;;;49.30;;
45274;SDS011;31019;43.780;25.948;2024-02-04T06:08:36;57.20;;;53.33;;
45274;SDS011;31019;43.780;25.948;2024-02-04T06:11:03;49.78;;;46.45;;
45274;SDS011;31019;43.780;25.948;2024-02-04T06:13:30;58.80;;;54.90;;
45274;SDS011;31019;43.780;25.948;2024-02-04T06:15:57;69.72;;;65.03;;
45274;SDS011;31019;43.780;25.948;2024-02-04T06:18:24;72.72;;;67.97;;
45274;SDS011;31019;43.780;25.948;2024-02-04T06:20:51;86.53;;;81.13;;
45274;SDS011;31019;43.780;25.948;2024-02-04T06:23:17;89.43;;;84.03;;
45274;SDS011;31019;43.780;25.948;2024-02-04T06:25:46;92.05;;;86.25;;
45274;SDS011;31019;43.780;25.948;2024-02-04T06:28:13;73.63;;;69.03;;
45274;SDS011;31019;43.780;25.948;2024-02-04T06:30:40;59.22;;;55.33;;
45274;SDS011;31019;43.780;25.948;2024-02-04T06:33:07;56.25;;;52.70;;
45274;SDS011;31019;43.780;25.948;2024-02-04T06:35:34;56.20;;;52.50;;
45274;SDS011;31019;43.780;25.948;2024-02-04T06:38:01;60.42;;;56.45;;
45274;SDS011;31019;43.780;25.948;2024-02-04T06:40:28;51.70;;;48.40;;
45274;SDS011;31019;43.780;25.948;2024-02-04T06:42:56;44.78;;;41.88;;
45274;SDS011;31019;43.780;25.948;2024-02-04T06:45:23;49.65;;;46.25;;
45274;SDS011;31019;43.780;25.948;2024-02-04T06:47:51;77.07;;;72.18;;
45274;SDS011;31019;43.780;25.948;2024-02-04T06:50:18;65.53;;;61.33;;
45274;SDS011;31019;43.780;25.948;2024-02-04T06:52:45;75.70;;;70.20;;
45274;SDS011;31019;43.780;25.948;2024-02-04T06:55:12;93.68;;;87.85;;
45274;SDS011;31019;43.780;25.948;2024-02-04T06:57:39;54.67;;;51.17;;
45274;SDS011;31019;43.780;25.948;2024-02-04T07:00:08;80.93;;;76.03;;
45274;SDS011;31019;43.780;25.948;2024-02-04T07:02:36;49.58;;;46.38;;
45274;SDS011;31019;43.780;25.948;2024-02-04T07:05:06;64.00;;;59.75;;
45274;SDS011;31019;43.780;25.948;2024-02-04T07:07:35;78.82;;;73.85;;
45274;SDS011;31019;43.780;25.948;2024-02-04T07:10:05;56.60;;;53.00;;
45274;SDS011;31019;43.780;25.948;2024-02-04T07:12:32;74.07;;;69.38;;
45274;SDS011;31019;43.780;25.948;2024-02-04T07:15:02;84.72;;;79.68;;
45274;SDS011;31019;43.780;25.948;2024-02-04T07:17:31;65.85;;;61.85;;
45274;SDS011;31019;43.780;25.948;2024-02-04T07:19:58;80.60;;;75.60;;
45274;SDS011;31019;43.780;25.948;2024-02-04T07:22:25;85.97;;;80.65;;
45274;SDS011;31019;43.780;25.948;2024-02-04T07:24:52;94.28;;;88.38;;
45274;SDS011;31019;43.780;25.948;2024-02-04T07:27:19;107.53;;;100.93;;
45274;SDS011;31019;43.780;25.948;2024-02-04T07:29:46;89.45;;;83.65;;
45274;SDS011;31019;43.780;25.948;2024-02-04T07:32:13;61.15;;;56.92;;
45274;SDS011;31019;43.780;25.948;2024-02-04T07:34:42;70.95;;;66.35;;
45274;SDS011;31019;43.780;25.948;2024-02-04T07:37:12;69.72;;;65.13;;
45274;SDS011;31019;43.780;25.948;2024-02-04T07:39:40;75.40;;;70.53;;
45274;SDS011;31019;43.780;25.948;2024-02-04T07:42:10;50.50;;;47.30;;
45274;SDS011;31019;43.780;25.948;2024-02-04T07:44:37;56.33;;;52.63;;
45274;SDS011;31019;43.780;25.948;2024-02-04T07:47:04;67.18;;;62.88;;
45274;SDS011;31019;43.780;25.948;2024-02-04T07:49:31;67.30;;;63.00;;
45274;SDS011;31019;43.780;25.948;2024-02-04T07:51:59;85.88;;;80.57;;
45274;SDS011;31019;43.780;25.948;2024-02-04T07:54:26;88.75;;;82.95;;
45274;SDS011;31019;43.780;25.948;2024-02-04T07:56:53;68.60;;;64.40;;
45274;SDS011;31019;43.780;25.948;2024-02-04T07:59:20;43.20;;;40.28;;
45274;SDS011;31019;43.780;25.948;2024-02-04T08:01:47;88.95;;;83.35;;
45274;SDS011;31019;43.780;25.948;2024-02-04T08:04:14;98.82;;;92.60;;
45274;SDS011;31019;43.780;25.948;2024-02-04T08:06:41;113.55;;;106.75;;
45274;SDS011;31019;43.780;25.948;2024-02-04T08:09:11;80.85;;;75.80;;
45274;SDS011;31019;43.780;25.948;2024-02-04T08:11:38;75.15;;;70.47;;
45274;SDS011;31019;43.780;25.948;2024-02-04T08:14:05;60.60;;;56.72;;
45274;SDS011;31019;43.780;25.948;2024-02-04T08:16:32;103.43;;;97.18;;
45274;SDS011;31019;43.780;25.948;2024-02-04T08:18:59;111.00;;;104.30;;
45274;SDS011;31019;43.780;25.948;2024-02-04T08:21:26;90.03;;;84.43;;
45274;SDS011;31019;43.780;25.948;2024-02-04T08:23:53;80.30;;;75.40;;
45274;SDS011;31019;43.780;25.948;2024-02-04T08:26:22;62.40;;;58.53;;
45274;SDS011;31019;43.780;25.948;2024-02-04T08:28:50;59.17;;;55.40;;
45274;SDS011;31019;43.780;25.948;2024-02-04T08:31:17;70.22;;;65.68;;
45274;SDS011;31019;43.780;25.948;2024-02-04T08:33:44;79.35;;;74.20;;
45274;SDS011;31019;43.780;25.948;2024-02-04T08:36:11;69.50;;;65.00;;
45274;SDS011;31019;43.780;25.948;2024-02-04T08:38:38;81.28;;;76.28;;
45274;SDS011;31019;43.780;25.948;2024-02-04T08:41:05;76.13;;;71.13;;
45274;SDS011;31019;43.780;25.948;2024-02-04T08:43:33;68.25;;;63.88;;
45274;SDS011;31019;43.780;25.948;2024-02-04T08:46:00;53.90;;;50.58;;
45274;SDS011;31019;43.780;25.948;2024-02-04T08:48:29;61.00;;;57.10;;
45274;SDS011;31019;43.780;25.948;2024-02-04T08:50:56;60.47;;;56.78;;
45274;SDS011;31019;43.780;25.948;2024-02-04T08:53:23;46.90;;;44.00;;
45274;SDS011;31019;43.780;25.948;2024-02-04T08:55:50;65.72;;;61.40;;
45274;SDS011;31019;43.780;25.948;2024-02-04T08:58:17;85.88;;;80.78;;
45274;SDS011;31019;43.780;25.948;2024-02-04T09:00:45;56.92;;;53.45;;
45274;SDS011;31019;43.780;25.948;2024-02-04T09:03:12;33.63;;;31.17;;
45274;SDS011;31019;43.780;25.948;2024-02-04T09:05:39;53.53;;;50.08;;
45274;SDS011;31019;43.780;25.948;2024-02-04T09:08:06;76.20;;;71.50;;
45274;SDS011;31019;43.780;25.948;2024-02-04T09:10:33;31.27;;;29.17;;
45274;SDS011;31019;43.780;25.948;2024-02-04T09:13:00;30.75;;;28.75;;
45274;SDS011;31019;43.780;25.948;2024-02-04T09:15:27;30.75;;;28.70;;
45274;SDS011;31019;43.780;25.948;2024-02-04T09:17:55;46.40;;;43.40;;
45274;SDS011;31019;43.780;25.948;2024-02-04T09:20:22;29.10;;;26.90;;
45274;SDS011;31019;43.780;25.948;2024-02-04T09:22:49;53.90;;;49.78;;
45274;SDS011;31019;43.780;25.948;2024-02-04T09:25:16;31.55;;;29.45;;
45274;SDS011;31019;43.780;25.948;2024-02-04T09:27:43;29.55;;;27.55;;
45274;SDS011;31019;43.780;25.948;2024-02-04T09:30:10;56.78;;;52.88;;
45274;SDS011;31019;43.780;25.948;2024-02-04T09:32:37;69.38;;;65.05;;
45274;SDS011;31019;43.780;25.948;2024-02-04T09:35:06;63.85;;;59.75;;
45274;SDS011;31019;43.780;25.948;2024-02-04T09:37:34;42.72;;;39.90;;
45274;SDS011;31019;43.780;25.948;2024-02-04T09:40:01;28.45;;;26.58;;
45274;SDS011;31019;43.780;25.948;2024-02-04T09:42:29;31.40;;;29.30;;
45274;SDS011;31019;43.780;25.948;2024-02-04T09:44:57;39.35;;;36.70;;
45274;SDS011;31019;43.780;25.948;2024-02-04T09:47:24;33.85;;;31.70;;
45274;SDS011;31019;43.780;25.948;2024-02-04T09:49:52;41.95;;;39.17;;
45274;SDS011;31019;43.780;25.948;2024-02-04T09:52:25;42.47;;;39.67;;
45274;SDS011;31019;43.780;25.948;2024-02-04T09:54:55;30.75;;;28.75;;
45274;SDS011;31019;43.780;25.948;2024-02-04T09:57:26;28.50;;;26.70;;
45274;SDS011;31019;43.780;25.948;2024-02-04T09:59:53;30.10;;;28.23;;
45274;SDS011;31019;43.780;25.948;2024-02-04T10:02:20;28.65;;;26.85;;
45274;SDS011;31019;43.780;25.948;2024-02-04T10:04:47;29.20;;;27.20;;
45274;SDS011;31019;43.780;25.948;2024-02-04T10:07:14;26.92;;;25.02;;
45274;SDS011;31019;43.780;25.948;2024-02-04T10:09:43;29.85;;;27.90;;
45274;SDS011;31019;43.780;25.948;2024-02-04T10:12:10;66.10;;;62.00;;
45274;SDS011;31019;43.780;25.948;2024-02-04T10:14:38;50.63;;;47.33;;
45274;SDS011;31019;43.780;25.948;2024-02-04T10:17:05;34.45;;;32.10;;
45274;SDS011;31019;43.780;25.948;2024-02-04T10:19:33;37.28;;;34.63;;
45274;SDS011;31019;43.780;25.948;2024-02-04T10:22:00;43.25;;;40.35;;
45274;SDS011;31019;43.780;25.948;2024-02-04T10:24:28;29.25;;;26.98;;
45274;SDS011;31019;43.780;25.948;2024-02-04T10:26:57;48.88;;;45.58;;
45274;SDS011;31019;43.780;25.948;2024-02-04T10:29:25;69.18;;;64.78;;
45274;SDS011;31019;43.780;25.948;2024-02-04T10:31:55;45.88;;;42.78;;
45274;SDS011;31019;43.780;25.948;2024-02-04T10:34:22;56.97;;;53.22;;
45274;SDS011;31019;43.780;25.948;2024-02-04T10:36:50;32.90;;;30.70;;
45274;SDS011;31019;43.780;25.948;2024-02-04T10:39:16;33.17;;;30.98;;
45274;SDS011;31019;43.780;25.948;2024-02-04T10:41:48;42.95;;;40.25;;
45274;SDS011;31019;43.780;25.948;2024-02-04T10:44:18;37.50;;;35.00;;
45274;SDS011;31019;43.780;25.948;2024-02-04T10:46:48;39.20;;;36.50;;
45274;SDS011;31019;43.780;25.948;2024-02-04T10:49:16;55.58;;;51.92;;
45274;SDS011;31019;43.780;25.948;2024-02-04T10:51:44;58.22;;;54.42;;
45274;SDS011;31019;43.780;25.948;2024-02-04T10:54:14;51.08;;;47.67;;
45274;SDS011;31019;43.780;25.948;2024-02-04T10:56:43;52.30;;;48.83;;
45274;SDS011;31019;43.780;25.948;2024-02-04T10:59:11;30.98;;;28.85;;
45274;SDS011;31019;43.780;25.948;2024-02-04T11:01:39;36.90;;;34.50;;
45274;SDS011;31019;43.780;25.948;2024-02-04T11:04:08;61.05;;;56.85;;
45274;SDS011;31019;43.780;25.948;2024-02-04T11:06:37;62.88;;;58.88;;
45274;SDS011;31019;43.780;25.948;2024-02-04T11:09:07;49.83;;;46.63;;
45274;SDS011;31019;43.780;25.948;2024-02-04T11:11:35;57.25;;;53.65;;
45274;SDS011;31019;43.780;25.948;2024-02-04T11:14:03;52.53;;;49.17;;
45274;SDS011;31019;43.780;25.948;2024-02-04T11:16:43;40.63;;;38.00;;
45274;SDS011;31019;43.780;25.948;2024-02-04T11:22:04;45.65;;;42.65;;
45274;SDS011;31019;43.780;25.948;2024-02-04T11:24:50;41.78;;;38.97;;
45274;SDS011;31019;43.780;25.948;2024-02-04T11:27:25;45.55;;;42.35;;
45274;SDS011;31019;43.780;25.948;2024-02-04T11:29:53;30.77;;;28.70;;
45274;SDS011;31019;43.780;25.948;2024-02-04T11:32:21;40.00;;;37.40;;
45274;SDS011;31019;43.780;25.948;2024-02-04T11:34:51;25.90;;;24.10;;
45274;SDS011;31019;43.780;25.948;2024-02-04T11:37:19;34.45;;;32.15;;
45274;SDS011;31019;43.780;25.948;2024-02-04T11:39:49;32.03;;;29.83;;
45274;SDS011;31019;43.780;25.948;2024-02-04T11:42:17;25.83;;;24.02;;
45274;SDS011;31019;43.780;25.948;2024-02-04T11:44:49;32.92;;;30.73;;
45274;SDS011;31019;43.780;25.948;2024-02-04T11:47:23;34.20;;;30.88;;
45274;SDS011;31019;43.780;25.948;2024-02-04T11:49:54;30.98;;;28.77;;
45274;SDS011;31019;43.780;25.948;2024-02-04T11:52:22;27.23;;;25.38;;
45274;SDS011;31019;43.780;25.948;2024-02-04T11:54:49;29.05;;;27.15;;
45274;SDS011;31019;43.780;25.948;2024-02-04T11:57:15;30.90;;;28.60;;
45274;SDS011;31019;43.780;25.948;2024-02-04T11:59:43;30.67;;;28.58;;
45274;SDS011;31019;43.780;25.948;2024-02-04T12:02:10;25.05;;;23.25;;
45274;SDS011;31019;43.780;25.948;2024-02-04T12:04:39;28.63;;;26.63;;
45274;SDS011;31019;43.780;25.948;2024-02-04T12:07:08;28.08;;;26.08;;
45274;SDS011;31019;43.780;25.948;2024-02-04T12:09:35;24.02;;;22.33;;
45274;SDS011;31019;43.780;25.948;2024-02-04T12:12:03;25.67;;;23.88;;
45274;SDS011;31019;43.780;25.948;2024-02-04T12:14:31;24.20;;;22.45;;
45274;SDS011;31019;43.780;25.948;2024-02-04T12:16:59;24.35;;;22.55;;
45274;SDS011;31019;43.780;25.948;2024-02-04T12:19:34;29.15;;;27.15;;
45274;SDS011;31019;43.780;25.948;2024-02-04T12:22:05;28.42;;;26.48;;
45274;SDS011;31019;43.780;25.948;2024-02-04T12:24:35;25.10;;;23.20;;
45274;SDS011;31019;43.780;25.948;2024-02-04T12:27:02;25.15;;;23.25;;
45274;SDS011;31019;43.780;25.948;2024-02-04T12:29:29;28.13;;;26.08;;
45274;SDS011;31019;43.780;25.948;2024-02-04T12:31:57;24.95;;;23.13;;
45274;SDS011;31019;43.780;25.948;2024-02-04T12:34:25;25.17;;;23.17;;
45274;SDS011;31019;43.780;25.948;2024-02-04T12:36:57;24.42;;;22.52;;
45274;SDS011;31019;43.780;25.948;2024-02-04T12:41:52;25.02;;;23.13;;
45274;SDS011;31019;43.780;25.948;2024-02-04T12:44:19;25.50;;;22.85;;
45274;SDS011;31019;43.780;25.948;2024-02-04T12:46:49;25.65;;;23.75;;
45274;SDS011;31019;43.780;25.948;2024-02-04T12:49:20;24.60;;;22.80;;
45274;SDS011;31019;43.780;25.948;2024-02-04T12:51:48;23.17;;;21.38;;
45274;SDS011;31019;43.780;25.948;2024-02-04T12:54:17;22.52;;;20.77;;
45274;SDS011;31019;43.780;25.948;2024-02-04T12:56:46;23.33;;;21.52;;
45274;SDS011;31019;43.780;25.948;2024-02-04T12:59:23;24.25;;;22.35;;
45274;SDS011;31019;43.780;25.948;2024-02-04T13:01:54;24.60;;;22.70;;
45274;SDS011;31019;43.780;25.948;2024-02-04T13:06:51;29.02;;;26.92;;
45274;SDS011;31019;43.780;25.948;2024-02-04T13:09:18;25.13;;;23.33;;
45274;SDS011;31019;43.780;25.948;2024-02-04T13:11:47;26.55;;;24.65;;
45274;SDS011;31019;43.780;25.948;2024-02-04T13:14:14;26.30;;;24.40;;
45274;SDS011;31019;43.780;25.948;2024-02-04T13:16:41;30.17;;;28.08;;
45274;SDS011;31019;43.780;25.948;2024-02-04T13:19:08;28.60;;;26.60;;
45274;SDS011;31019;43.780;25.948;2024-02-04T13:21:35;24.98;;;23.08;;
45274;SDS011;31019;43.780;25.948;2024-02-04T13:24:02;23.98;;;22.17;;
45274;SDS011;31019;43.780;25.948;2024-02-04T13:26:29;26.05;;;24.15;;
45274;SDS011;31019;43.780;25.948;2024-02-04T13:28:57;25.20;;;23.20;;
45274;SDS011;31019;43.780;25.948;2024-02-04T13:31:24;24.00;;;22.20;;
45274;SDS011;31019;43.780;25.948;2024-02-04T13:33:52;23.00;;;21.30;;
45274;SDS011;31019;43.780;25.948;2024-02-04T13:36:22;23.70;;;22.00;;
45274;SDS011;31019;43.780;25.948;2024-02-04T13:38:58;23.95;;;22.15;;
45274;SDS011;31019;43.780;25.948;2024-02-04T13:41:25;24.30;;;22.40;;
45274;SDS011;31019;43.780;25.948;2024-02-04T13:43:52;22.88;;;21.08;;
45274;SDS011;31019;43.780;25.948;2024-02-04T13:46:21;22.55;;;20.83;;
45274;SDS011;31019;43.780;25.948;2024-02-04T13:48:48;22.73;;;20.92;;
45274;SDS011;31019;43.780;25.948;2024-02-04T13:51:14;23.70;;;21.80;;
45274;SDS011;31019;43.780;25.948;2024-02-04T13:53:41;23.23;;;21.42;;
45274;SDS011;31019;43.780;25.948;2024-02-04T13:56:08;22.88;;;21.08;;
45274;SDS011;31019;43.780;25.948;2024-02-04T13:58:35;22.88;;;21.08;;
45274;SDS011;31019;43.780;25.948;2024-02-04T14:01:02;23.48;;;21.67;;
45274;SDS011;31019;43.780;25.948;2024-02-04T14:03:31;24.92;;;23.13;;
45274;SDS011;31019;43.780;25.948;2024-02-04T14:05:58;26.05;;;24.15;;
45274;SDS011;31019;43.780;25.948;2024-02-04T14:08:28;24.50;;;22.70;;
45274;SDS011;31019;43.780;25.948;2024-02-04T14:10:55;24.27;;;22.38;;
45274;SDS011;31019;43.780;25.948;2024-02-04T14:13:22;24.70;;;22.80;;
45274;SDS011;31019;43.780;25.948;2024-02-04T14:15:49;26.70;;;24.77;;